Time;durP1;ratioP1;P1;durP2;ratioP2;P2;SDS_P1;SDS_P2;PMS_P1;PMS_P2;Temp;Humidity;BMP_temperature;BMP_pressure;BME280_temperature;BME280_humidity;BME280_pressure;Samples;Min_cycle;Max_cycle;Signal;HPM_P1;HPM_P2
2023/04/26 00:00:42;;;;;;;9.57;2.50;;;;;;;4.24;100.00;101521.81;5026420;28;20237;-71
2023/04/26 00:03:08;;;;;;;9.33;2.60;;;;;;;4.26;100.00;101514.31;5026589;28;20337;-70
2023/04/26 00:05:34;;;;;;;7.97;2.50;;;;;;;4.36;100.00;101511.50;5023753;28;20679;-69
2023/04/26 00:08:00;;;;;;;11.53;2.60;;;;;;;4.35;100.00;101515.72;5011371;28;20226;-70
2023/04/26 00:10:25;;;;;;;8.43;2.30;;;;;;;4.38;100.00;101515.84;5028728;28;20256;-69
2023/04/26 00:12:51;;;;;;;13.50;2.83;;;;;;;4.39;100.00;101514.19;5028808;28;20244;-71
2023/04/26 00:15:17;;;;;;;7.63;2.07;;;;;;;4.37;100.00;101515.78;5030125;28;20562;-71
2023/04/26 00:17:42;;;;;;;11.93;2.97;;;;;;;4.36;100.00;101516.56;5028067;28;20571;-70
2023/04/26 00:20:10;;;;;;;10.07;2.70;;;;;;;4.32;100.00;101510.47;5024857;28;20210;-69
2023/04/26 00:22:36;;;;;;;10.73;2.67;;;;;;;4.35;100.00;101515.72;5028347;28;20655;-71
2023/04/26 00:25:02;;;;;;;11.13;2.53;;;;;;;4.36;100.00;101524.16;5027457;28;20201;-71
2023/04/26 00:27:27;;;;;;;6.90;2.30;;;;;;;4.36;100.00;101519.97;5023997;28;20266;-71
2023/04/26 00:29:53;;;;;;;7.53;2.70;;;;;;;4.33;100.00;101529.09;5009446;28;20745;-71
2023/04/26 00:32:19;;;;;;;6.87;2.60;;;;;;;4.33;100.00;101534.16;5026520;28;20202;-69
2023/04/26 00:34:45;;;;;;;8.50;2.30;;;;;;;4.31;100.00;101531.53;5028250;28;20190;-70
2023/04/26 00:37:11;;;;;;;7.23;2.40;;;;;;;4.31;100.00;101539.13;5028284;28;20678;-70
2023/04/26 00:39:37;;;;;;;11.10;2.60;;;;;;;4.30;100.00;101527.25;5004501;28;20225;-70
2023/04/26 00:42:03;;;;;;;8.60;2.60;;;;;;;4.30;100.00;101531.44;5025658;28;20190;-69
2023/04/26 00:44:28;;;;;;;7.73;2.70;;;;;;;4.22;100.00;101531.03;5027584;28;20186;-71
2023/04/26 00:46:54;;;;;;;11.50;2.50;;;;;;;4.17;100.00;101526.47;5025929;28;20225;-71
2023/04/26 00:49:23;;;;;;;8.60;2.30;;;;;;;4.18;100.00;101529.09;5022379;28;20206;-69
2023/04/26 00:51:50;;;;;;;9.23;2.30;;;;;;;4.21;100.00;101536.88;5014346;28;20194;-71
2023/04/26 00:54:18;;;;;;;10.80;2.90;;;;;;;4.28;100.00;101544.03;5026245;28;20205;-69
2023/04/26 00:56:44;;;;;;;7.57;2.13;;;;;;;4.34;100.00;101544.38;5007810;28;20186;-69
2023/04/26 00:59:10;;;;;;;6.40;2.70;;;;;;;4.31;100.00;101546.75;5025278;28;20206;-70
2023/04/26 01:01:36;;;;;;;6.03;2.47;;;;;;;4.36;100.00;101546.97;5026293;28;20205;-68
2023/04/26 01:04:02;;;;;;;9.50;3.17;;;;;;;4.34;100.00;101546.03;5028652;28;20588;-69
2023/04/26 01:06:33;;;;;;;8.13;2.10;;;;;;;4.32;100.00;101545.94;5006316;28;20190;-68
2023/04/26 01:09:02;;;;;;;10.97;2.80;;;;;;;4.32;100.00;101542.56;5007033;28;20253;-69
2023/04/26 01:11:29;;;;;;;9.13;2.17;;;;;;;4.30;100.00;101545.00;5025383;28;20659;-69
2023/04/26 01:13:56;;;;;;;8.77;2.83;;;;;;;4.29;100.00;101542.38;5028486;28;20277;-70
2023/04/26 01:16:22;;;;;;;16.93;3.03;;;;;;;4.25;100.00;101545.53;5027570;28;20198;-70
2023/04/26 01:18:51;;;;;;;7.40;2.33;;;;;;;4.23;100.00;101547.97;5024740;28;20218;-69
2023/04/26 01:21:21;;;;;;;7.03;2.63;;;;;;;4.13;100.00;101548.25;5021845;28;20193;-70
2023/04/26 01:23:48;;;;;;;11.20;2.70;;;;;;;4.03;100.00;101540.03;5001284;28;20704;-69
2023/04/26 01:26:14;;;;;;;15.60;2.80;;;;;;;3.99;100.00;101549.13;5021314;28;20194;-70
2023/04/26 01:28:40;;;;;;;8.87;2.83;;;;;;;3.96;100.00;101543.88;5024263;28;20695;-70
2023/04/26 01:31:06;;;;;;;9.30;3.00;;;;;;;3.93;100.00;101552.97;5023411;28;20645;-70
2023/04/26 01:33:31;;;;;;;13.00;3.20;;;;;;;3.92;100.00;101553.78;5017132;28;20210;-69
2023/04/26 01:35:57;;;;;;;10.60;3.03;;;;;;;3.87;100.00;101547.56;5002059;28;20199;-70
2023/04/26 01:38:22;;;;;;;10.50;3.17;;;;;;;3.88;100.00;101554.38;5005649;28;20681;-69
2023/04/26 01:40:47;;;;;;;10.73;2.80;;;;;;;3.85;100.00;101549.13;5001928;28;20190;-69
2023/04/26 01:43:14;;;;;;;9.77;2.80;;;;;;;3.83;100.00;101553.25;5001624;28;20763;-68
2023/04/26 01:45:40;;;;;;;11.13;3.70;;;;;;;3.82;100.00;101554.88;5017111;28;20187;-69
2023/04/26 01:48:24;;;;;;;9.23;3.57;;;;;;;3.81;100.00;101553.16;5017556;28;20224;-70
2023/04/26 01:50:49;;;;;;;8.13;3.00;;;;;;;3.84;100.00;101560.06;5023572;28;20282;-69
2023/04/26 01:53:15;;;;;;;13.10;3.43;;;;;;;3.83;100.00;101556.66;5010260;28;20677;-71
2023/04/26 01:55:40;;;;;;;8.70;3.53;;;;;;;3.81;100.00;101554.78;5019185;28;20191;-71
2023/04/26 01:58:07;;;;;;;15.37;3.57;;;;;;;3.76;100.00;101552.03;5006372;28;20251;-69
2023/04/26 02:00:33;;;;;;;13.20;3.47;;;;;;;3.76;100.00;101554.56;5022197;28;20194;-71
2023/04/26 02:02:58;;;;;;;9.43;3.20;;;;;;;3.73;100.00;101554.38;5026933;28;20199;-70
2023/04/26 02:05:24;;;;;;;10.17;3.07;;;;;;;3.75;100.00;101554.47;5005878;28;20194;-69
2023/04/26 02:07:50;;;;;;;11.57;3.20;;;;;;;3.76;100.00;101557.09;5010643;28;20206;-71
2023/04/26 02:10:15;;;;;;;9.57;2.67;;;;;;;3.79;100.00;101554.75;5023867;28;20202;-70
2023/04/26 02:12:41;;;;;;;9.07;3.83;;;;;;;3.78;100.00;101552.13;5029176;28;20194;-70
2023/04/26 02:15:07;;;;;;;12.27;3.33;;;;;;;3.77;100.00;101560.50;5031200;28;20190;-70
2023/04/26 02:17:33;;;;;;;9.27;3.10;;;;;;;3.74;100.00;101565.38;5009912;28;20237;-70
2023/04/26 02:19:58;;;;;;;9.10;2.80;;;;;;;3.73;100.00;101563.63;5010518;28;20704;-70
2023/04/26 02:22:25;;;;;;;11.20;3.10;;;;;;;3.73;100.00;101551.84;5026688;28;20202;-71
2023/04/26 02:24:51;;;;;;;8.10;2.87;;;;;;;3.75;100.00;101559.53;5011638;28;20190;-69
2023/04/26 02:27:17;;;;;;;10.90;3.40;;;;;;;3.73;100.00;101556.91;5029918;28;20671;-71
2023/04/26 02:29:43;;;;;;;7.77;3.30;;;;;;;3.69;100.00;101552.44;5030172;28;20222;-70
2023/04/26 02:32:09;;;;;;;6.13;2.83;;;;;;;3.65;100.00;101555.59;5012191;28;20568;-71
2023/04/26 02:34:35;;;;;;;8.50;3.63;;;;;;;3.68;100.00;101557.44;5025023;28;20195;-67
2023/04/26 02:37:00;;;;;;;8.07;2.97;;;;;;;3.73;100.00;101569.56;5029616;28;20292;-70
2023/04/26 02:39:26;;;;;;;8.90;3.13;;;;;;;3.77;100.00;101557.97;5029284;28;20210;-70
2023/04/26 02:41:51;;;;;;;10.97;3.60;;;;;;;3.80;100.00;101561.53;5025019;28;20196;-70
2023/04/26 02:44:17;;;;;;;11.07;3.40;;;;;;;3.85;100.00;101560.16;5011588;28;20194;-71
2023/04/26 02:46:42;;;;;;;9.00;3.33;;;;;;;3.89;100.00;101569.66;5028525;28;20305;-69
2023/04/26 02:49:08;;;;;;;9.77;3.27;;;;;;;3.96;100.00;101575.97;5029090;28;20217;-69
2023/04/26 02:51:34;;;;;;;8.80;3.50;;;;;;;4.05;100.00;101584.94;5022796;28;20857;-70
2023/04/26 02:53:59;;;;;;;7.60;3.27;;;;;;;4.05;100.00;101584.94;5007290;28;20194;-69
2023/04/26 02:56:25;;;;;;;11.87;4.07;;;;;;;4.07;100.00;101587.56;5010135;28;20340;-70
2023/04/26 02:58:50;;;;;;;7.93;2.93;;;;;;;3.99;100.00;101576.13;5014399;28;20268;-70
2023/04/26 03:01:17;;;;;;;12.77;3.73;;;;;;;4.03;100.00;101578.03;5012837;28;20190;-68
2023/04/26 03:03:42;;;;;;;9.10;3.33;;;;;;;4.09;100.00;101581.78;5011967;28;20256;-71
2023/04/26 03:06:08;;;;;;;15.33;3.97;;;;;;;4.05;100.00;101573.94;5013193;28;20297;-71
2023/04/26 03:08:35;;;;;;;13.20;3.40;;;;;;;3.97;100.00;101555.78;5028290;28;20249;-71
2023/04/26 03:11:01;;;;;;;10.40;3.60;;;;;;;3.93;100.00;101553.88;5011526;28;20198;-71
2023/04/26 03:13:27;;;;;;;10.10;3.77;;;;;;;3.97;100.00;101554.91;5027289;28;20297;-69
2023/04/26 03:15:54;;;;;;;11.93;3.80;;;;;;;4.00;100.00;101560.16;5010800;28;20205;-68
2023/04/26 03:18:20;;;;;;;12.67;3.50;;;;;;;3.96;100.00;101566.69;5020830;28;20211;-70
2023/04/26 03:20:47;;;;;;;15.23;3.90;;;;;;;3.94;100.00;101562.31;5013357;28;20197;-71
2023/04/26 03:23:13;;;;;;;12.37;3.87;;;;;;;3.88;100.00;101562.88;5012922;28;20592;-70
2023/04/26 03:25:38;;;;;;;13.40;4.27;;;;;;;3.82;100.00;101566.69;5026229;28;20182;-70
2023/04/26 03:28:04;;;;;;;15.10;4.23;;;;;;;3.75;100.00;101567.13;5006805;28;20209;-72
2023/04/26 03:30:30;;;;;;;10.90;3.87;;;;;;;3.73;100.00;101561.97;5026598;28;20195;-69
2023/04/26 03:32:56;;;;;;;12.03;3.97;;;;;;;3.70;100.00;101563.44;5011691;28;20182;-70
2023/04/26 03:35:21;;;;;;;13.37;4.40;;;;;;;3.69;100.00;101571.84;5023953;28;20218;-67
2023/04/26 03:37:47;;;;;;;9.77;4.07;;;;;;;3.72;100.00;101572.88;5022502;28;20674;-69
2023/04/26 03:40:15;;;;;;;13.10;4.23;;;;;;;3.71;100.00;101573.69;5026137;28;20214;-70
2023/04/26 03:42:41;;;;;;;14.07;3.90;;;;;;;3.74;100.00;101570.44;5024386;28;20580;-70
2023/04/26 03:45:07;;;;;;;11.30;3.87;;;;;;;3.72;100.00;101566.97;5010823;28;20285;-70
2023/04/26 03:47:35;;;;;;;8.10;3.40;;;;;;;3.65;100.00;101563.19;5026567;28;20234;-68
2023/04/26 03:50:01;;;;;;;12.30;4.40;;;;;;;3.64;100.00;101563.09;5024563;28;20214;-70
2023/04/26 03:52:26;;;;;;;10.23;3.63;;;;;;;3.61;100.00;101557.84;5006630;28;20284;-71
2023/04/26 03:54:52;;;;;;;13.10;3.70;;;;;;;3.57;100.00;101556.81;5010635;28;20183;-71
2023/04/26 03:57:18;;;;;;;8.30;3.47;;;;;;;3.56;100.00;101554.19;5028023;28;20194;-69
2023/04/26 03:59:43;;;;;;;11.43;4.20;;;;;;;3.53;100.00;101556.53;5022246;28;20268;-70
2023/04/26 04:02:08;;;;;;;13.07;3.80;;;;;;;3.53;100.00;101567.53;5010876;28;20197;-70
2023/04/26 04:04:34;;;;;;;14.17;4.30;;;;;;;3.54;100.00;101565.91;5029084;28;20195;-71
2023/04/26 04:06:59;;;;;;;8.60;3.13;;;;;;;3.54;100.00;101576.00;5025716;28;20306;-70
2023/04/26 04:09:25;;;;;;;9.60;3.57;;;;;;;3.49;100.00;101569.81;5007403;28;20691;-70
2023/04/26 04:11:51;;;;;;;8.23;3.30;;;;;;;3.47;100.00;101571.34;5006010;28;20183;-70
2023/04/26 04:14:16;;;;;;;9.67;3.37;;;;;;;3.51;100.00;101575.81;5026927;28;20289;-70
2023/04/26 04:16:42;;;;;;;9.60;3.53;;;;;;;3.55;100.00;101576.06;5028575;28;20232;-70
2023/04/26 04:19:07;;;;;;;8.73;3.43;;;;;;;3.54;100.00;101570.94;5011099;28;20210;-70
2023/04/26 04:21:34;;;;;;;9.23;3.27;;;;;;;3.53;100.00;101580.19;5024829;28;20235;-71
2023/04/26 04:23:59;;;;;;;6.33;3.20;;;;;;;3.52;100.00;101573.38;5007027;28;20210;-70
2023/04/26 04:26:26;;;;;;;8.33;3.43;;;;;;;3.50;100.00;101577.47;5026945;28;20190;-70
2023/04/26 04:28:53;;;;;;;8.23;3.27;;;;;;;3.52;100.00;101580.97;5004243;28;20246;-70
2023/04/26 04:31:20;;;;;;;6.80;3.83;;;;;;;3.54;100.00;101581.94;5006845;28;20209;-68
2023/04/26 04:33:45;;;;;;;7.93;4.00;;;;;;;3.52;100.00;101591.09;5009680;28;20253;-70
2023/04/26 04:36:12;;;;;;;9.63;3.90;;;;;;;3.50;100.00;101590.13;5009139;28;20194;-71
2023/04/26 04:38:37;;;;;;;10.33;4.13;;;;;;;3.47;100.00;101591.59;5024224;28;20625;-70
2023/04/26 04:41:04;;;;;;;10.73;4.00;;;;;;;3.48;100.00;101593.34;5008545;28;20559;-71
2023/04/26 04:43:30;;;;;;;10.17;3.87;;;;;;;3.50;100.00;101585.06;5022806;28;20253;-68
2023/04/26 04:45:55;;;;;;;11.03;4.30;;;;;;;3.52;100.00;101592.75;5026539;28;20202;-71
2023/04/26 04:48:21;;;;;;;11.17;3.80;;;;;;;3.67;100.00;101591.09;5025204;28;20227;-71
2023/04/26 04:50:48;;;;;;;9.37;4.20;;;;;;;3.69;100.00;101589.56;5006626;28;20194;-71
2023/04/26 04:53:14;;;;;;;12.63;4.10;;;;;;;3.67;100.00;101593.63;5010739;28;20217;-70
2023/04/26 04:55:39;;;;;;;12.00;4.40;;;;;;;3.62;100.00;101595.03;5022490;28;20299;-68
2023/04/26 04:58:06;;;;;;;7.43;4.07;;;;;;;3.65;100.00;101607.88;5022733;28;20194;-71
2023/04/26 05:00:33;;;;;;;8.73;3.43;;;;;;;3.69;100.00;101605.59;5025208;28;20218;-70
2023/04/26 05:03:12;;;;;;;8.23;3.80;;;;;;;3.77;100.00;101606.09;5022912;28;20286;-69
2023/04/26 05:05:38;;;;;;;9.97;3.93;;;;;;;3.86;100.00;101604.09;5004946;28;20195;-68
2023/04/26 05:08:06;;;;;;;8.00;3.80;;;;;;;3.90;100.00;101605.97;5010999;28;20217;-70
2023/04/26 05:10:32;;;;;;;9.33;4.17;;;;;;;3.88;100.00;101615.16;5009139;28;20198;-72
2023/04/26 05:12:58;;;;;;;10.27;3.97;;;;;;;3.87;100.00;101605.81;5007053;28;20326;-69
2023/04/26 05:15:24;;;;;;;9.37;4.23;;;;;;;3.94;100.00;101608.78;5026371;28;20285;-69
2023/04/26 05:17:50;;;;;;;7.50;4.13;;;;;;;4.10;100.00;101608.88;5007792;28;20194;-69
2023/04/26 05:20:19;;;;;;;10.40;3.77;;;;;;;4.21;100.00;101602.78;5026200;28;20233;-69
2023/04/26 05:22:45;;;;;;;11.13;3.70;;;;;;;4.37;100.00;101602.81;5012411;28;20277;-70
2023/04/26 05:25:12;;;;;;;9.27;3.73;;;;;;;4.49;100.00;101608.59;5010112;28;20711;-68
2023/04/26 05:27:38;;;;;;;11.17;3.60;;;;;;;4.43;100.00;101610.81;5005621;28;20218;-71
2023/04/26 05:30:33;;;;;;;9.17;3.63;;;;;;;4.55;100.00;101603.84;4998183;28;20203;-71
2023/04/26 05:33:21;;;;;;;7.20;3.30;;;;;;;4.45;100.00;101611.75;5024953;28;20207;-69
2023/04/26 05:36:08;;;;;;;13.47;4.07;;;;;;;4.38;100.00;101609.63;5025137;28;20206;-70
2023/04/26 05:38:35;;;;;;;7.47;3.90;;;;;;;4.36;100.00;101616.31;5020854;28;20607;-70
2023/04/26 05:41:00;;;;;;;11.47;3.83;;;;;;;4.40;100.00;101615.69;5007023;28;20207;-70
2023/04/26 05:43:26;;;;;;;14.27;4.30;;;;;;;4.37;100.00;101620.56;5008688;28;20667;-70
2023/04/26 05:45:53;;;;;;;8.00;4.07;;;;;;;4.35;100.00;101617.09;5010249;28;20263;-71
2023/04/26 05:48:23;;;;;;;13.50;4.90;;;;;;;4.45;100.00;101621.88;5026037;28;20214;-70
2023/04/26 05:50:50;;;;;;;9.33;4.20;;;;;;;4.32;100.00;101614.38;5008157;28;20240;-70
2023/04/26 05:53:17;;;;;;;14.50;4.07;;;;;;;4.41;100.00;101627.56;5016448;28;20372;-71
2023/04/26 05:55:43;;;;;;;11.57;4.40;;;;;;;4.45;100.00;101624.41;5008870;28;20232;-71
2023/04/26 05:58:09;;;;;;;9.83;4.67;;;;;;;4.53;100.00;101627.38;5020482;28;20194;-70
2023/04/26 06:00:36;;;;;;;9.67;3.80;;;;;;;4.45;100.00;101633.69;5003719;28;20198;-71
2023/04/26 06:03:02;;;;;;;13.23;4.60;;;;;;;4.64;100.00;101628.84;5022190;28;20190;-70
2023/04/26 06:05:27;;;;;;;10.33;4.30;;;;;;;4.97;100.00;101629.03;5015278;28;20190;-71
2023/04/26 06:07:53;;;;;;;13.57;4.23;;;;;;;5.14;100.00;101620.66;5019958;28;20225;-70
2023/04/26 06:10:19;;;;;;;8.27;4.13;;;;;;;5.38;100.00;101619.41;5008459;28;20710;-70
2023/04/26 06:12:45;;;;;;;9.20;3.77;;;;;;;5.26;100.00;101626.38;5007403;28;20791;-70
2023/04/26 06:15:11;;;;;;;8.57;4.30;;;;;;;5.67;100.00;101620.91;5007979;28;20330;-70
2023/04/26 06:17:38;;;;;;;7.87;4.10;;;;;;;5.80;100.00;101623.28;5009033;28;20195;-70
2023/04/26 06:20:08;;;;;;;7.73;3.73;;;;;;;6.01;100.00;101621.84;5010875;28;20210;-69
2023/04/26 06:22:33;;;;;;;13.30;4.77;;;;;;;6.21;100.00;101616.09;5013197;28;20222;-67
2023/04/26 06:24:59;;;;;;;10.40;3.43;;;;;;;6.38;100.00;101617.75;4997611;28;20187;-70
2023/04/26 06:27:25;;;;;;;7.17;3.53;;;;;;;6.17;100.00;101615.03;5016031;28;20237;-70
2023/04/26 06:29:52;;;;;;;16.93;3.90;;;;;;;6.28;100.00;101618.09;5007160;28;20281;-70
2023/04/26 06:32:18;;;;;;;9.50;3.07;;;;;;;6.30;100.00;101614.84;5024387;28;20197;-69
2023/04/26 06:34:44;;;;;;;8.17;3.40;;;;;;;6.63;100.00;101618.13;5012429;28;20203;-68
2023/04/26 06:37:11;;;;;;;8.63;3.30;;;;;;;6.83;100.00;101618.28;4991383;28;20190;-70
2023/04/26 06:39:39;;;;;;;10.43;4.03;;;;;;;6.96;100.00;101618.00;5001743;28;20553;-67
2023/04/26 06:42:05;;;;;;;10.77;3.77;;;;;;;6.64;100.00;101615.63;5024343;28;20209;-66
2023/04/26 06:44:47;;;;;;;9.13;3.40;;;;;;;6.57;100.00;101623.81;5020080;28;20190;-72
2023/04/26 06:47:15;;;;;;;11.97;3.90;;;;;;;6.60;100.00;101625.63;5006955;28;20214;-71
2023/04/26 06:49:41;;;;;;;7.90;3.50;;;;;;;6.61;100.00;101620.59;5021936;28;20742;-71
2023/04/26 06:52:06;;;;;;;7.30;3.17;;;;;;;7.10;100.00;101616.97;5020255;28;20209;-70
2023/04/26 06:54:32;;;;;;;7.03;3.23;;;;;;;7.64;100.00;101606.69;5020893;28;20225;-70
2023/04/26 06:56:58;;;;;;;7.93;3.20;;;;;;;7.43;100.00;101610.84;5023946;28;20198;-69
2023/04/26 06:59:23;;;;;;;13.13;3.47;;;;;;;7.56;100.00;101604.63;5029245;28;20218;-70
2023/04/26 07:01:49;;;;;;;6.80;2.93;;;;;;;7.24;100.00;101621.00;5025925;28;20241;-69
2023/04/26 07:04:17;;;;;;;8.67;3.37;;;;;;;7.53;100.00;101612.13;5025316;28;20751;-70
2023/04/26 07:06:42;;;;;;;9.33;3.87;;;;;;;7.59;100.00;101609.81;5021366;28;20249;-72
2023/04/26 07:09:08;;;;;;;5.83;3.20;;;;;;;7.20;100.00;101616.59;5026952;28;20217;-71
2023/04/26 07:11:33;;;;;;;9.07;3.30;;;;;;;7.35;100.00;101619.84;5027360;28;20270;-72
2023/04/26 07:13:59;;;;;;;8.87;3.40;;;;;;;7.50;100.00;101622.16;5028262;28;20197;-69
2023/04/26 07:16:25;;;;;;;8.73;3.40;;;;;;;7.44;100.00;101621.91;5024662;28;20202;-68
2023/04/26 07:18:51;;;;;;;10.10;4.07;;;;;;;7.73;100.00;101593.44;5027745;28;20313;-72
2023/04/26 07:21:17;;;;;;;6.10;3.20;;;;;;;8.10;100.00;101578.88;5022578;28;20198;-71
2023/04/26 07:23:43;;;;;;;8.40;3.73;;;;;;;8.16;100.00;101567.25;5026989;28;20548;-70
2023/04/26 07:26:12;;;;;;;9.37;3.43;;;;;;;8.53;100.00;101529.63;5027693;28;20194;-68
2023/04/26 07:28:37;;;;;;;10.03;3.33;;;;;;;8.40;100.00;101575.06;5019163;28;20238;-70
2023/04/26 07:31:03;;;;;;;8.83;3.70;;;;;;;8.67;100.00;101556.56;5028947;28;20244;-70
2023/04/26 07:33:29;;;;;;;6.87;3.40;;;;;;;9.17;100.00;101481.81;5025124;28;20298;-70
2023/04/26 07:35:56;;;;;;;8.93;3.53;;;;;;;8.99;100.00;101453.06;5022682;28;20905;-70
2023/04/26 07:38:22;;;;;;;10.27;3.27;;;;;;;8.89;100.00;101454.41;5023426;28;20252;-70
2023/04/26 07:40:49;;;;;;;9.47;3.07;;;;;;;8.84;100.00;101467.84;5026617;28;20656;-70
2023/04/26 07:43:15;;;;;;;8.37;3.30;;;;;;;8.86;100.00;101443.22;5027863;28;20209;-69
2023/04/26 07:45:41;;;;;;;10.50;3.73;;;;;;;8.85;100.00;101457.66;5024976;28;20675;-67
2023/04/26 07:48:07;;;;;;;7.73;2.77;;;;;;;8.71;100.00;101425.66;5022018;28;20222;-71
2023/04/26 07:50:32;;;;;;;11.13;3.83;;;;;;;9.51;100.00;101372.22;5021312;28;20194;-70
2023/04/26 07:52:58;;;;;;;7.63;3.00;;;;;;;9.88;100.00;101347.84;5023212;28;20190;-71
2023/04/26 07:55:23;;;;;;;8.23;3.03;;;;;;;9.27;100.00;101369.72;5025178;28;20209;-70
2023/04/26 07:57:49;;;;;;;8.50;2.87;;;;;;;8.92;100.00;101395.78;5025719;28;20194;-69
2023/04/26 08:00:15;;;;;;;7.37;2.90;;;;;;;9.35;100.00;101388.75;5029521;28;20270;-69
2023/04/26 08:02:41;;;;;;;6.30;3.03;;;;;;;9.58;100.00;101352.00;5021039;28;20277;-69
2023/04/26 08:05:07;;;;;;;8.97;2.93;;;;;;;10.05;100.00;101284.44;5023042;28;20664;-69
2023/04/26 08:07:33;;;;;;;6.50;2.30;;;;;;;10.38;100.00;101221.34;5021722;28;20210;-70
2023/04/26 08:09:58;;;;;;;5.70;2.20;;;;;;;10.45;100.00;101198.50;5022050;28;20205;-70
2023/04/26 08:12:24;;;;;;;6.77;2.30;;;;;;;10.73;100.00;101195.81;5027284;28;20328;-71
2023/04/26 08:14:49;;;;;;;5.73;2.00;;;;;;;10.31;100.00;101146.09;5026028;28;20294;-71
2023/04/26 08:17:15;;;;;;;5.07;1.73;;;;;;;9.84;100.00;101110.72;5018874;28;20206;-71
2023/04/26 08:19:40;;;;;;;6.27;2.10;;;;;;;10.36;100.00;101113.81;5022541;28;20643;-70
2023/04/26 08:22:06;;;;;;;6.00;2.20;;;;;;;10.18;100.00;101141.50;5021270;28;20834;-71
2023/04/26 08:24:32;;;;;;;8.20;2.23;;;;;;;10.00;100.00;101128.19;5022747;28;20550;-69
2023/04/26 08:26:58;;;;;;;6.77;2.40;;;;;;;9.98;100.00;101149.44;5026598;28;20223;-70
2023/04/26 08:29:26;;;;;;;6.37;2.30;;;;;;;10.27;100.00;101184.38;5024739;28;20223;-69
2023/04/26 08:31:51;;;;;;;11.77;2.30;;;;;;;10.42;100.00;101225.72;5022419;28;20202;-71
2023/04/26 08:34:17;;;;;;;9.30;2.67;;;;;;;10.07;100.00;101231.59;5022467;28;20710;-69
2023/04/26 08:36:42;;;;;;;11.10;2.73;;;;;;;9.97;100.00;101256.03;5022439;28;20210;-69
2023/04/26 08:39:08;;;;;;;5.10;1.50;;;;;;;8.85;100.00;101409.16;5007376;28;20272;-70
2023/04/26 08:41:47;;;;;;;5.00;1.70;;;;;;;7.93;100.00;101656.38;5020337;28;20198;-70
2023/04/26 08:44:12;;;;;;;4.27;1.47;;;;;;;7.57;100.00;101755.03;5025500;28;20209;-70
2023/04/26 08:46:51;;;;;;;5.97;1.53;;;;;;;7.51;100.00;101782.75;5023588;28;20200;-69
2023/04/26 08:49:32;;;;;;;4.13;1.50;;;;;;;7.65;100.00;101705.25;5022192;28;20217;-70
2023/04/26 08:51:59;;;;;;;3.27;1.87;;;;;;;7.69;100.00;101719.88;5021584;28;20277;-68
2023/04/26 08:54:24;;;;;;;3.83;1.87;;;;;;;7.66;100.00;101750.34;5023466;28;20328;-69
2023/04/26 08:56:51;;;;;;;4.97;1.83;;;;;;;7.42;100.00;101815.44;5027946;28;20285;-70
2023/04/26 08:59:18;;;;;;;3.63;2.33;;;;;;;7.48;100.00;101797.03;5027964;28;20765;-70
2023/04/26 09:01:44;;;;;;;4.53;2.70;;;;;;;7.55;100.00;101751.53;5017747;28;20228;-69
2023/04/26 09:04:11;;;;;;;8.90;3.00;;;;;;;7.50;100.00;101702.03;5023674;28;20191;-70
2023/04/26 09:06:37;;;;;;;7.23;2.70;;;;;;;7.47;100.00;101680.66;5019727;28;20197;-70
2023/04/26 09:09:06;;;;;;;6.00;2.57;;;;;;;7.54;100.00;101669.91;5025890;28;20206;-69
2023/04/26 09:11:51;;;;;;;5.23;2.87;;;;;;;7.67;100.00;101675.63;5028026;28;20273;-69
2023/04/26 09:14:17;;;;;;;5.23;2.30;;;;;;;7.84;100.00;101679.78;5026082;28;20281;-69
2023/04/26 09:16:42;;;;;;;5.37;2.30;;;;;;;8.00;100.00;101666.91;5019198;28;20822;-69
2023/04/26 09:19:08;;;;;;;3.83;2.23;;;;;;;8.51;100.00;101670.75;5023491;28;20210;-72
2023/04/26 09:21:42;;;;;;;6.83;2.40;;;;;;;8.63;100.00;101669.59;5023087;28;20226;-71
2023/04/26 09:24:07;;;;;;;7.27;2.97;;;;;;;8.83;100.00;101645.72;5020456;28;20201;-69
2023/04/26 09:26:33;;;;;;;6.10;3.43;;;;;;;9.14;100.00;101612.00;5024685;28;21010;-67
2023/04/26 09:29:11;;;;;;;5.13;3.50;;;;;;;9.74;100.00;101601.41;5024383;28;20723;-69
2023/04/26 09:31:40;;;;;;;5.17;3.13;;;;;;;10.50;100.00;101536.63;5019689;28;20190;-67
2023/04/26 09:34:05;;;;;;;7.47;2.93;;;;;;;9.97;100.00;101487.94;5024829;28;20198;-67
2023/04/26 09:36:31;;;;;;;7.17;3.20;;;;;;;10.06;100.00;101522.41;5022214;28;20222;-69
2023/04/26 09:38:57;;;;;;;10.07;3.83;;;;;;;10.29;100.00;101513.78;5020528;28;20209;-70
2023/04/26 09:41:22;;;;;;;6.43;2.83;;;;;;;11.07;100.00;101518.66;5008681;28;20198;-68
2023/04/26 09:43:51;;;;;;;5.10;2.93;;;;;;;10.89;100.00;101407.13;5027220;28;20202;-68
2023/04/26 09:46:24;;;;;;;6.27;2.90;;;;;;;11.11;100.00;101348.78;5013887;28;20727;-69
2023/04/26 09:49:01;;;;;;;7.50;2.73;;;;;;;11.50;100.00;101326.69;5017644;28;20219;-68
2023/04/26 09:51:27;;;;;;;4.67;2.50;;;;;;;11.78;100.00;101223.88;5021730;28;20644;-68
2023/04/26 09:53:53;;;;;;;8.00;2.80;;;;;;;12.30;100.00;101212.91;5006313;28;20194;-67
2023/04/26 09:56:19;;;;;;;6.47;2.63;;;;;;;12.65;100.00;101157.84;5021767;28;20191;-67
2023/04/26 09:58:59;;;;;;;9.43;3.10;;;;;;;12.37;100.00;101165.94;5019408;28;20353;-69
2023/04/26 10:01:28;;;;;;;5.93;2.40;;;;;;;12.89;98.29;101058.88;5021913;28;20198;-68
2023/04/26 10:04:00;;;;;;;7.00;2.93;;;;;;;12.99;93.39;101010.19;5021794;28;20203;-69
2023/04/26 10:06:27;;;;;;;6.23;2.80;;;;;;;12.60;97.26;101052.47;5019864;28;20294;-68
2023/04/26 10:08:53;;;;;;;4.60;2.20;;;;;;;11.73;94.95;101038.19;5016304;28;20221;-67
2023/04/26 10:11:20;;;;;;;4.10;2.23;;;;;;;11.78;90.38;101015.19;5023986;28;20198;-67
2023/04/26 10:13:49;;;;;;;8.57;3.00;;;;;;;11.59;100.00;101090.94;5019330;28;20245;-71
2023/04/26 10:16:15;;;;;;;6.77;2.60;;;;;;;11.46;100.00;101163.31;5021413;28;20195;-68
2023/04/26 10:18:41;;;;;;;4.47;2.13;;;;;;;11.06;97.94;101095.81;5018730;28;20216;-68
2023/04/26 10:21:11;;;;;;;4.30;2.03;;;;;;;10.99;100.00;101122.09;5020889;28;20191;-69
2023/04/26 10:23:38;;;;;;;6.60;2.30;;;;;;;11.13;99.25;101102.78;5018003;28;20375;-67
2023/04/26 10:26:04;;;;;;;7.30;2.10;;;;;;;12.23;95.56;101088.69;5019833;28;20230;-68
2023/04/26 10:28:45;;;;;;;4.70;1.53;;;;;;;12.88;76.13;100939.78;5019739;28;20225;-68
2023/04/26 10:31:11;;;;;;;4.47;1.47;;;;;;;13.50;78.18;100934.44;5028010;28;20191;-68
2023/04/26 10:33:36;;;;;;;4.53;1.67;;;;;;;13.66;80.25;100948.28;5024184;28;20552;-70
2023/04/26 10:36:06;;;;;;;6.40;1.87;;;;;;;13.71;75.85;100923.47;5025471;28;20253;-69
2023/04/26 10:38:34;;;;;;;4.70;1.83;;;;;;;13.26;74.75;100917.94;5020699;28;20765;-70
2023/04/26 10:41:29;;;;;;;4.53;1.77;;;;;;;12.74;85.58;100999.56;5024367;28;20186;-68
2023/04/26 10:43:55;;;;;;;7.03;2.10;;;;;;;12.06;94.77;101095.25;5017639;28;20252;-68
2023/04/26 10:46:39;;;;;;;4.17;1.13;;;;;;;10.88;100.00;101231.19;4999425;28;20688;-70
2023/04/26 10:49:21;;;;;;;1.73;0.83;;;;;;;9.97;100.00;101381.38;5023529;28;20284;-70
2023/04/26 10:52:12;;;;;;;4.70;1.37;;;;;;;9.22;100.00;101556.94;5022258;28;20669;-70
2023/04/26 10:54:45;;;;;;;3.97;1.53;;;;;;;8.83;100.00;101714.66;5021462;28;20195;-70
2023/04/26 10:57:10;;;;;;;3.50;1.40;;;;;;;8.62;100.00;101776.75;5026529;28;20194;-71
2023/04/26 10:59:36;;;;;;;4.17;1.20;;;;;;;8.57;100.00;101844.59;5026508;28;20237;-68
2023/04/26 11:02:02;;;;;;;4.17;1.60;;;;;;;8.55;100.00;101848.75;5024578;28;20205;-69
2023/04/26 11:04:53;;;;;;;3.40;1.60;;;;;;;8.63;100.00;101857.63;5023914;28;20217;-70
2023/04/26 11:07:38;;;;;;;2.53;1.10;;;;;;;8.59;100.00;101828.53;5004446;28;20233;-69
2023/04/26 11:10:09;;;;;;;2.53;1.60;;;;;;;8.68;100.00;101787.19;5018232;28;20215;-69
2023/04/26 11:12:35;;;;;;;2.23;1.10;;;;;;;8.76;100.00;101699.03;5027903;28;20742;-69
2023/04/26 11:15:00;;;;;;;5.77;1.20;;;;;;;9.07;100.00;101687.53;5025748;28;20206;-68
2023/04/26 11:17:26;;;;;;;2.23;0.93;;;;;;;9.10;100.00;101691.88;5027773;28;20743;-69
2023/04/26 11:19:51;;;;;;;4.43;1.30;;;;;;;8.35;100.00;101670.94;5021894;28;20374;-69
2023/04/26 11:22:21;;;;;;;4.67;1.93;;;;;;;8.32;100.00;101722.72;5022937;28;20605;-70